createdAt,value
2022-11-02T00:01:22.447Z,52.33
2022-11-02T00:03:51.663Z,51.96
2022-11-02T00:06:19.807Z,51.77
2022-11-02T00:08:52.647Z,52.01
2022-11-02T00:11:21.413Z,52.14
2022-11-02T00:13:50.236Z,51.98
2022-11-02T00:16:24.628Z,51.98
2022-11-02T00:19:00.686Z,51.84
2022-11-02T00:21:29.846Z,51.79
2022-11-02T00:23:59.774Z,52.07
2022-11-02T00:26:31.396Z,52.52
2022-11-02T00:28:59.869Z,51.89
2022-11-02T00:31:27.641Z,52.06
2022-11-02T00:33:56.856Z,52.24
2022-11-02T00:36:28.455Z,51.84
2022-11-02T00:38:58.716Z,51.92
2022-11-02T00:41:30.422Z,51.75
2022-11-02T00:44:00.401Z,51.96
2022-11-02T00:46:28.963Z,52.00
2022-11-02T00:49:00.701Z,52.21
2022-11-02T00:51:30.389Z,52.15
2022-11-02T00:54:01.822Z,51.89
2022-11-02T00:56:29.454Z,51.99
2022-11-02T00:59:03.151Z,52.39
2022-11-02T01:01:33.675Z,52.01
2022-11-02T01:04:01.855Z,52.43
2022-11-02T01:06:39.272Z,52.28
2022-11-02T01:09:07.456Z,52.26
2022-11-02T01:11:35.404Z,52.12
2022-11-02T01:14:03.067Z,52.26
2022-11-02T01:16:36.384Z,52.01
2022-11-02T01:19:03.926Z,51.97
2022-11-02T01:21:39.353Z,52.43
2022-11-02T01:24:08.176Z,52.53
2022-11-02T01:26:36.853Z,53.37
2022-11-02T01:29:05.061Z,52.73
2022-11-02T01:31:32.687Z,52.53
2022-11-02T01:34:03.234Z,52.55
2022-11-02T01:36:32.645Z,52.54
2022-11-02T01:39:00.442Z,52.74
2022-11-02T01:41:33.919Z,52.71
2022-11-02T01:44:05.697Z,53.12
2022-11-02T01:46:46.829Z,53.01
2022-11-02T01:49:20.319Z,53.10
2022-11-02T01:52:31.170Z,53.22
2022-11-02T01:55:12.169Z,52.60
2022-11-02T01:57:44.286Z,52.88
2022-11-02T02:00:15.472Z,52.57
2022-11-02T02:03:18.422Z,53.12
2022-11-02T02:05:58.079Z,53.05
2022-11-02T02:08:29.473Z,52.49
2022-11-02T02:11:00.737Z,52.84
2022-11-02T02:13:30.183Z,52.54
2022-11-02T02:16:16.313Z,52.68
2022-11-02T02:18:53.738Z,52.54
2022-11-02T02:21:50.750Z,53.02
2022-11-02T02:24:38.580Z,52.32
2022-11-02T02:27:24.367Z,52.54
2022-11-02T02:30:10.998Z,52.47
2022-11-02T02:32:57.150Z,52.78
2022-11-02T02:35:35.909Z,52.60
2022-11-02T02:38:18.499Z,52.98
2022-11-02T02:41:00.527Z,52.65
2022-11-02T02:43:43.057Z,52.96
2022-11-02T02:46:27.581Z,53.14
2022-11-02T02:48:57.915Z,52.59
2022-11-02T02:51:32.235Z,52.81
2022-11-02T02:54:10.947Z,53.02
2022-11-02T02:56:54.057Z,52.94
2022-11-02T02:59:28.634Z,52.92
2022-11-02T03:01:59.949Z,52.93
2022-11-02T03:04:28.103Z,53.22
2022-11-02T03:07:01.015Z,53.83
2022-11-02T03:10:05.238Z,54.26
2022-11-02T03:12:46.303Z,53.66
2022-11-02T03:15:25.827Z,53.91
2022-11-02T03:18:15.475Z,53.73
2022-11-02T03:21:06.882Z,54.00
2022-11-02T03:23:44.088Z,53.70
2022-11-02T03:26:27.547Z,53.87
2022-11-02T03:29:19.396Z,53.19
2022-11-02T03:31:55.666Z,53.36
2022-11-02T03:34:39.165Z,53.31
2022-11-02T03:37:25.747Z,53.37
2022-11-02T03:40:02.991Z,53.18
2022-11-02T03:42:36.997Z,52.87
2022-11-02T03:45:15.196Z,52.89
2022-11-02T03:48:07.374Z,52.65
2022-11-02T03:50:39.367Z,52.75
2022-11-02T03:53:17.987Z,53.15
2022-11-02T03:55:59.704Z,53.30
2022-11-02T03:58:28.053Z,53.44
2022-11-02T04:01:03.092Z,53.33
2022-11-02T04:03:34.222Z,53.13
2022-11-02T04:06:02.283Z,53.56
2022-11-02T04:08:37.503Z,52.68
2022-11-02T04:11:27.851Z,52.73
2022-11-02T04:14:18.233Z,52.21
2022-11-02T04:16:49.532Z,52.04
2022-11-02T04:19:30.370Z,51.98
2022-11-02T04:22:22.728Z,52.30
2022-11-02T04:25:14.350Z,52.04
2022-11-02T04:27:47.437Z,52.70
2022-11-02T04:30:18.928Z,52.14
2022-11-02T04:33:10.112Z,52.13
2022-11-02T04:35:53.645Z,52.01
2022-11-02T04:38:41.209Z,52.37
2022-11-02T04:41:39.177Z,52.66
2022-11-02T04:44:17.751Z,52.67
2022-11-02T04:46:56.089Z,52.24
2022-11-02T04:49:27.662Z,52.19
2022-11-02T04:51:55.689Z,52.52
2022-11-02T04:54:23.544Z,52.85
2022-11-02T04:56:59.105Z,52.83
2022-11-02T04:59:29.805Z,52.92
2022-11-02T05:01:58.943Z,52.46
2022-11-02T05:04:27.301Z,52.29
2022-11-02T05:07:01.283Z,52.92
2022-11-02T05:09:34.271Z,53.05
2022-11-02T05:12:02.353Z,52.87
2022-11-02T05:14:31.212Z,52.50
2022-11-02T05:16:59.628Z,52.71
2022-11-02T05:19:27.763Z,52.77
2022-11-02T05:21:56.151Z,53.00
2022-11-02T05:24:25.992Z,53.45
2022-11-02T05:26:54.114Z,52.83
2022-11-02T05:29:24.975Z,53.30
2022-11-02T05:31:53.854Z,53.00
2022-11-02T05:34:24.216Z,52.97
2022-11-02T05:36:52.897Z,52.87
2022-11-02T05:39:35.605Z,52.82
2022-11-02T05:42:14.410Z,52.74
2022-11-02T05:44:42.524Z,52.53
2022-11-02T05:47:13.671Z,53.19
2022-11-02T05:49:41.264Z,52.63
2022-11-02T05:52:09.815Z,52.76
2022-11-02T05:54:41.341Z,52.89
2022-11-02T05:57:11.648Z,53.24
2022-11-02T05:59:40.300Z,53.23
2022-11-02T06:02:08.322Z,53.59
2022-11-02T06:04:36.758Z,53.32
2022-11-02T06:07:14.757Z,53.41
2022-11-02T06:09:53.570Z,53.66
2022-11-02T06:12:31.265Z,53.28
2022-11-02T06:15:01.200Z,53.26
2022-11-02T06:17:29.197Z,53.43
2022-11-02T06:19:57.326Z,53.10
2022-11-02T06:22:25.975Z,53.29
2022-11-02T06:24:55.775Z,53.02
2022-11-02T06:27:25.070Z,53.20
2022-11-02T06:29:56.015Z,53.09
2022-11-02T06:32:26.238Z,53.21
2022-11-02T06:34:54.098Z,53.34
2022-11-02T06:37:24.329Z,53.54
2022-11-02T06:39:55.895Z,54.41
2022-11-02T06:42:36.911Z,53.94
2022-11-02T06:45:13.752Z,54.24
2022-11-02T06:47:42.198Z,54.29
2022-11-02T06:50:10.482Z,53.87
2022-11-02T06:52:48.556Z,54.00
2022-11-02T06:55:18.327Z,53.66
2022-11-02T06:57:46.062Z,53.63
2022-11-02T07:00:22.786Z,53.98
2022-11-02T07:03:09.829Z,54.74
2022-11-02T07:05:40.866Z,53.48
2022-11-02T07:08:08.457Z,53.45
2022-11-02T07:10:40.499Z,53.15
2022-11-02T07:13:08.430Z,53.03
2022-11-02T07:15:40.118Z,52.58
2022-11-02T07:18:08.946Z,52.29
2022-11-02T07:20:36.740Z,52.24
2022-11-02T07:23:05.747Z,52.38
2022-11-02T07:25:37.143Z,52.37
2022-11-02T07:28:06.394Z,52.08
2022-11-02T07:30:35.222Z,51.81
2022-11-02T07:33:03.709Z,52.04
2022-11-02T07:35:31.414Z,52.14
2022-11-02T07:38:04.579Z,51.52
2022-11-02T07:40:34.187Z,51.99
2022-11-02T07:43:05.996Z,51.62
2022-11-02T07:45:41.779Z,51.51
2022-11-02T07:48:09.077Z,51.53
2022-11-02T07:50:36.256Z,51.66
2022-11-02T07:53:04.261Z,51.45
2022-11-02T07:55:32.842Z,51.06
2022-11-02T07:58:03.309Z,51.17
2022-11-02T08:00:33.898Z,51.06
2022-11-02T08:03:03.216Z,51.21
2022-11-02T08:05:32.877Z,50.94
2022-11-02T08:08:16.578Z,50.95
2022-11-02T08:10:56.542Z,50.45
2022-11-02T08:13:26.275Z,50.43
2022-11-02T08:15:57.379Z,50.27
2022-11-02T08:18:27.810Z,50.08
2022-11-02T08:20:57.849Z,49.40
2022-11-02T08:23:26.771Z,49.02
2022-11-02T08:26:02.442Z,47.62
2022-11-02T08:28:40.817Z,47.85
2022-11-02T08:31:18.042Z,46.77
2022-11-02T08:33:46.365Z,46.34
2022-11-02T08:36:14.435Z,46.07
2022-11-02T08:38:44.649Z,44.74
2022-11-02T08:41:12.045Z,44.40
2022-11-02T08:43:41.533Z,44.37
2022-11-02T08:46:14.790Z,43.66
2022-11-02T08:48:46.716Z,43.42
2022-11-02T08:51:14.046Z,43.18
2022-11-02T08:53:50.403Z,42.13
2022-11-02T08:56:41.411Z,42.19
2022-11-02T08:59:09.177Z,41.26
2022-11-02T09:01:39.967Z,41.27
2022-11-02T09:04:11.077Z,40.68
2022-11-02T09:06:38.261Z,41.12
2022-11-02T09:09:11.372Z,40.53
2022-11-02T09:11:41.266Z,40.44
2022-11-02T09:14:08.667Z,40.83
2022-11-02T09:16:41.263Z,40.51
2022-11-02T09:19:12.123Z,40.26
2022-11-02T09:21:41.149Z,40.10
2022-11-02T09:24:09.062Z,39.21
2022-11-02T09:26:36.404Z,39.47
2022-11-02T09:29:03.744Z,39.85
2022-11-02T09:31:31.124Z,39.63
2022-11-02T09:34:02.765Z,38.30
2022-11-02T09:36:31.731Z,38.15
2022-11-02T09:39:01.914Z,38.25
2022-11-02T09:41:33.023Z,38.58
2022-11-02T09:44:03.967Z,38.14
2022-11-02T09:46:40.746Z,37.55
2022-11-02T09:49:17.318Z,37.39
2022-11-02T09:51:50.419Z,36.58
2022-11-02T09:54:34.726Z,36.11
2022-11-02T09:57:09.694Z,35.96
2022-11-02T09:59:37.867Z,36.22
2022-11-02T10:02:26.055Z,36.44
2022-11-02T10:05:28.283Z,34.96
2022-11-02T10:08:04.832Z,33.78
2022-11-02T10:10:39.817Z,33.20
2022-11-02T10:13:22.599Z,33.22
2022-11-02T10:15:56.486Z,33.57
2022-11-02T10:18:32.690Z,32.63
2022-11-02T10:21:05.716Z,33.27
2022-11-02T10:23:40.584Z,32.45
2022-11-02T10:26:16.508Z,31.83
2022-11-02T10:28:53.916Z,31.99
2022-11-02T10:31:29.592Z,31.79
2022-11-02T10:34:13.015Z,31.84
2022-11-02T10:37:10.706Z,31.67
2022-11-02T10:39:56.355Z,32.41
2022-11-02T10:43:01.312Z,31.14
2022-11-02T10:45:57.032Z,30.31
2022-11-02T10:48:37.782Z,29.75
2022-11-02T10:51:16.098Z,29.90
2022-11-02T10:53:48.199Z,29.87
2022-11-02T10:56:32.293Z,29.31
2022-11-02T10:58:59.575Z,28.86
2022-11-02T11:01:28.986Z,28.71
2022-11-02T11:04:22.475Z,29.08
2022-11-02T11:06:52.558Z,28.86
2022-11-02T11:09:49.517Z,27.82
2022-11-02T11:12:46.764Z,28.25
2022-11-02T11:15:49.936Z,26.69
2022-11-02T11:21:13.011Z,27.12
2022-11-02T11:23:40.339Z,27.35
2022-11-02T11:26:27.838Z,27.44
2022-11-02T11:28:59.456Z,27.08
2022-11-02T11:31:26.869Z,27.21
2022-11-02T11:33:58.800Z,26.11
2022-11-02T11:36:35.967Z,25.73
2022-11-02T11:39:07.472Z,25.23
2022-11-02T11:41:39.487Z,25.48
2022-11-02T11:44:14.677Z,24.85
2022-11-02T11:46:47.244Z,25.34
2022-11-02T11:50:07.138Z,25.24
2022-11-02T11:52:32.590Z,26.29
2022-11-02T11:55:41.488Z,24.84
2022-11-02T11:58:31.430Z,24.96
2022-11-02T12:01:12.235Z,24.50
2022-11-02T12:04:03.792Z,23.38
2022-11-02T12:06:55.840Z,23.73
2022-11-02T12:09:32.014Z,23.87
2022-11-02T12:12:14.376Z,22.23
2022-11-02T12:15:01.394Z,22.22
2022-11-02T12:17:50.762Z,22.45
2022-11-02T12:20:46.253Z,21.48
2022-11-02T12:23:30.962Z,22.01
2022-11-02T12:26:23.359Z,21.76
2022-11-02T12:28:56.552Z,22.29
2022-11-02T12:31:29.791Z,21.64
2022-11-02T12:34:52.866Z,22.25
2022-11-02T12:37:40.241Z,22.03
2022-11-02T12:40:31.030Z,22.33
2022-11-02T12:43:36.487Z,21.36
2022-11-02T12:46:25.578Z,22.60
2022-11-02T12:49:36.649Z,22.32
2022-11-02T12:52:19.979Z,21.62
2022-11-02T12:54:58.426Z,22.02
2022-11-02T12:57:38.491Z,22.15
2022-11-02T13:00:19.901Z,21.93
2022-11-02T13:03:39.687Z,20.61
2022-11-02T13:06:13.219Z,21.44
2022-11-02T13:09:50.394Z,22.01
2022-11-02T13:12:37.411Z,21.84
2022-11-02T13:15:15.850Z,22.25
2022-11-02T13:18:09.178Z,22.13
2022-11-02T13:20:40.503Z,21.79
2022-11-02T13:23:42.699Z,23.18
2022-11-02T13:26:39.851Z,23.22
2022-11-02T13:29:32.192Z,23.80
2022-11-02T13:32:33.620Z,24.45
2022-11-02T13:35:28.952Z,25.47
2022-11-02T13:38:12.237Z,27.49
2022-11-02T13:40:49.459Z,29.24
2022-11-02T13:44:14.125Z,29.01
2022-11-02T13:47:22.595Z,29.43
2022-11-02T13:49:57.496Z,29.79
2022-11-02T13:52:54.756Z,30.67
2022-11-02T13:55:53.130Z,30.87
2022-11-02T13:58:56.341Z,29.80
2022-11-02T14:01:31.974Z,29.42
2022-11-02T14:04:08.791Z,29.40
2022-11-02T14:10:29.743Z,29.78
2022-11-02T14:13:20.613Z,30.62
2022-11-02T14:15:53.544Z,30.43
2022-11-02T14:18:34.992Z,31.00
2022-11-02T14:21:44.953Z,30.50
2022-11-02T14:24:52.201Z,31.67
2022-11-02T14:27:40.073Z,31.58
2022-11-02T14:30:49.821Z,31.89
2022-11-02T14:34:13.978Z,33.75
2022-11-02T14:37:14.802Z,33.77
2022-11-02T14:40:05.968Z,34.85
2022-11-02T14:43:05.070Z,34.59
2022-11-02T14:45:51.183Z,35.19
2022-11-02T14:48:49.184Z,35.81
2022-11-02T14:51:34.219Z,36.63
2022-11-02T14:57:44.633Z,38.00
2022-11-02T15:00:49.286Z,38.78
2022-11-02T15:03:45.797Z,39.80
2022-11-02T15:06:28.894Z,39.10
2022-11-02T15:09:07.285Z,39.93
2022-11-02T15:12:00.609Z,40.22
2022-11-02T15:14:36.379Z,39.85
2022-11-02T15:17:32.699Z,40.86
2022-11-02T15:20:18.129Z,40.62
2022-11-02T15:23:01.085Z,39.99
2022-11-02T15:25:36.512Z,39.52
2022-11-02T15:28:24.885Z,39.79
2022-11-02T15:30:59.499Z,39.01
2022-11-02T15:33:44.216Z,39.62
2022-11-02T15:36:22.152Z,39.86
2022-11-02T15:39:02.567Z,39.43
2022-11-02T15:42:05.065Z,40.07
2022-11-02T15:44:47.287Z,39.92
2022-11-02T15:47:49.696Z,39.50
2022-11-02T15:50:56.649Z,39.92
2022-11-02T15:54:01.558Z,40.69
2022-11-02T15:57:11.494Z,41.27
2022-11-02T16:00:24.899Z,40.96
2022-11-02T16:02:59.953Z,40.89
2022-11-02T16:05:54.960Z,42.31
2022-11-02T16:08:43.284Z,43.04
2022-11-02T16:11:23.756Z,43.13
2022-11-02T16:14:22.332Z,44.13
2022-11-02T16:16:59.224Z,42.54
2022-11-02T16:19:41.298Z,43.51
2022-11-02T16:22:26.224Z,44.45
2022-11-02T16:24:54.978Z,43.60
2022-11-02T16:27:28.396Z,44.58
2022-11-02T16:29:56.255Z,44.12
2022-11-02T16:32:41.453Z,43.83
2022-11-02T16:35:22.752Z,44.81
2022-11-02T16:37:54.171Z,45.32
2022-11-02T16:40:50.561Z,45.43
2022-11-02T16:43:57.395Z,45.62
2022-11-02T16:46:47.883Z,45.63
2022-11-02T16:49:28.619Z,45.71
2022-11-02T16:52:13.433Z,46.49
2022-11-02T16:55:31.286Z,46.66
2022-11-02T16:58:19.900Z,46.87
2022-11-02T17:01:50.714Z,47.07
2022-11-02T17:04:28.429Z,46.82
2022-11-02T17:07:24.636Z,47.22
2022-11-02T17:10:09.894Z,46.60
2022-11-02T17:13:17.229Z,46.74
2022-11-02T17:16:03.808Z,46.54
2022-11-02T17:18:49.625Z,47.14
2022-11-02T17:21:35.074Z,46.99
2022-11-02T17:24:40.376Z,47.53
2022-11-02T17:27:27.214Z,48.12
2022-11-02T17:29:55.267Z,47.40
2022-11-02T17:32:23.816Z,46.99
2022-11-02T17:34:56.712Z,47.92
2022-11-02T17:37:25.634Z,47.59
2022-11-02T17:39:56.259Z,47.98
2022-11-02T17:42:47.040Z,48.09
2022-11-02T17:45:24.729Z,48.65
2022-11-02T17:47:56.379Z,47.52
2022-11-02T17:50:25.776Z,47.69
2022-11-02T17:53:03.291Z,48.66
2022-11-02T17:55:40.311Z,48.64
2022-11-02T17:58:08.574Z,48.35
2022-11-02T18:00:39.450Z,48.96
2022-11-02T18:03:31.174Z,49.13
2022-11-02T18:06:05.290Z,49.23
2022-11-02T18:08:55.959Z,49.06
2022-11-02T18:11:31.817Z,49.21
2022-11-02T18:14:03.023Z,48.55
2022-11-02T18:16:35.352Z,49.62
2022-11-02T18:19:10.596Z,49.16
2022-11-02T18:21:43.102Z,49.46
2022-11-02T18:24:11.653Z,48.81
2022-11-02T18:26:42.755Z,49.36
2022-11-02T18:29:16.695Z,49.25
2022-11-02T18:34:33.157Z,50.18
2022-11-02T18:40:03.451Z,50.12
2022-11-02T18:42:48.034Z,50.06
2022-11-02T18:48:06.959Z,49.75
2022-11-02T18:50:35.319Z,50.38
2022-11-02T18:53:10.060Z,50.65
2022-11-02T18:55:43.978Z,50.22
2022-11-02T18:58:14.683Z,50.74
2022-11-02T19:01:11.279Z,50.64
2022-11-02T19:03:45.018Z,50.59
2022-11-02T19:06:34.756Z,50.82
2022-11-02T19:09:24.086Z,50.35
2022-11-02T19:12:04.495Z,51.02
2022-11-02T19:17:42.676Z,50.78
2022-11-02T19:20:22.989Z,51.28
2022-11-02T19:22:57.268Z,51.42
2022-11-02T19:25:24.596Z,50.81
2022-11-02T19:27:51.902Z,50.79
2022-11-02T19:30:20.144Z,50.42
2022-11-02T19:32:47.330Z,50.15
2022-11-02T19:35:14.563Z,50.52
2022-11-02T19:37:41.804Z,50.61
2022-11-02T19:40:09.837Z,50.77
2022-11-02T19:42:37.173Z,50.81
2022-11-02T19:45:06.113Z,50.51
2022-11-02T19:47:34.442Z,50.02
2022-11-02T19:50:03.427Z,50.75
2022-11-02T19:52:30.850Z,50.58
2022-11-02T19:54:59.134Z,50.30
2022-11-02T19:57:30.715Z,50.72
2022-11-02T20:00:00.832Z,50.56
2022-11-02T20:02:28.190Z,50.42
2022-11-02T20:04:55.986Z,50.37
2022-11-02T20:07:24.959Z,50.81
2022-11-02T20:09:58.796Z,51.32
2022-11-02T20:12:27.135Z,51.23
2022-11-02T20:14:54.429Z,50.93
2022-11-02T20:17:51.888Z,51.21
2022-11-02T20:20:09.984Z,51.07
2022-11-02T20:22:38.840Z,51.24
2022-11-02T20:25:10.030Z,51.46
2022-11-02T20:27:41.640Z,51.11
2022-11-02T20:30:09.733Z,51.70
2022-11-02T20:32:37.457Z,51.51
2022-11-02T20:35:09.710Z,52.27
2022-11-02T20:37:42.955Z,51.92
2022-11-02T20:40:13.757Z,51.93
2022-11-02T20:42:41.447Z,51.97
2022-11-02T20:45:09.690Z,51.56
2022-11-02T20:47:37.385Z,51.71
2022-11-02T20:50:05.061Z,51.77
2022-11-02T20:52:33.932Z,51.82
2022-11-02T20:57:51.671Z,51.61
2022-11-02T21:00:25.240Z,51.82
2022-11-02T21:03:03.541Z,52.08
2022-11-02T21:05:42.315Z,51.75
2022-11-02T21:08:23.404Z,51.72
2022-11-02T21:14:51.523Z,51.98
2022-11-02T21:17:34.214Z,52.07
2022-11-02T21:23:10.183Z,52.35
2022-11-02T21:25:48.287Z,51.90
2022-11-02T21:28:30.036Z,52.04
2022-11-02T21:31:58.154Z,52.29
2022-11-02T21:34:28.589Z,51.65
2022-11-02T21:37:06.598Z,51.96
2022-11-02T21:39:35.399Z,51.57
2022-11-02T21:42:09.066Z,51.31
2022-11-02T21:44:55.086Z,51.17
2022-11-02T21:47:23.631Z,51.27
2022-11-02T21:50:00.050Z,51.27
2022-11-02T21:52:50.298Z,50.94
2022-11-02T21:55:44.194Z,51.47
2022-11-02T21:58:43.043Z,51.17
2022-11-02T22:01:48.122Z,51.13
2022-11-02T22:04:32.340Z,51.30
2022-11-02T22:07:15.601Z,51.27
2022-11-02T22:10:10.911Z,51.47
2022-11-02T22:13:01.271Z,51.53
2022-11-02T22:15:37.393Z,50.98
2022-11-02T22:18:21.079Z,51.00
2022-11-02T22:21:08.294Z,51.26
2022-11-02T22:24:00.164Z,52.20
2022-11-02T22:26:46.997Z,51.88
2022-11-02T22:29:23.986Z,51.62
2022-11-02T22:32:10.181Z,51.88
2022-11-02T22:35:02.866Z,52.20
2022-11-02T22:38:16.248Z,52.24
2022-11-02T22:41:02.683Z,51.97
2022-11-02T22:44:18.476Z,52.32
2022-11-02T22:47:00.962Z,52.33
2022-11-02T22:52:31.407Z,51.95
2022-11-02T22:55:27.012Z,52.15
2022-11-02T22:58:07.161Z,51.83
2022-11-02T23:00:47.606Z,52.07
2022-11-02T23:03:31.788Z,52.14
2022-11-02T23:06:15.595Z,52.02
2022-11-02T23:08:56.707Z,52.14
2022-11-02T23:11:42.297Z,51.40
2022-11-02T23:14:13.415Z,51.68
2022-11-02T23:17:02.372Z,51.89
2022-11-02T23:19:30.339Z,51.63
2022-11-02T23:22:38.861Z,51.81
2022-11-02T23:25:22.640Z,51.86
2022-11-02T23:28:15.844Z,52.04
2022-11-02T23:31:03.221Z,51.54
2022-11-02T23:33:33.755Z,51.93
2022-11-02T23:36:16.155Z,51.85
2022-11-02T23:39:04.500Z,51.33
2022-11-02T23:41:35.098Z,51.49
2022-11-02T23:44:12.420Z,51.36
2022-11-02T23:46:44.792Z,51.60
2022-11-02T23:49:13.904Z,51.13
2022-11-02T23:52:02.726Z,51.20
2022-11-02T23:54:49.479Z,51.34
2022-11-02T23:57:21.414Z,51.40
2022-11-02T23:59:48.981Z,51.49
